Weil, Louisiana
Current Conditions -  °F | °C
As of 9:53 PM on Thursday 27 Nov 2014 (Local Time) from KAEX Reporting Station
Clear Clear  
Wind Chill: 39°   Ceiling: Unl
Heat Index: 43°   Visibility: 10mi
Dew Point: 33°   Wind: 7mph
Humidity: 68%   Direction: 70°ENE
Pressure: 30.45"   Gusts: NA
Location:  31.2912°N, 92.5491°W
Report Text: KAEX 280353Z AUTO 07006KT 10SM CLR 06/01 A3045 RMK AO2 SLP316 T00610006
Loading
Personal Weather Stations






























Interactive Weather Map New forecast layout! Learn more

10-Day Weather Forecast

Advertisements
Track Severe Weather on mobile